Time;durP1;ratioP1;P1;durP2;ratioP2;P2;SDS_P1;SDS_P2;PMS_P1;PMS_P2;Temp;Humidity;BMP_temperature;BMP_pressure;BME280_temperature;BME280_humidity;BME280_pressure;Samples;Min_cycle;Max_cycle;Signal;HPM_P1;HPM_P2
2023/08/28 00:01:19;;;;;;;10.17;4.47;;;;;;;;;;5055098;28;20461;-79
2023/08/28 00:03:45;;;;;;;6.73;3.33;;;;;;;;;;5041048;28;20990;-79
2023/08/28 00:06:12;;;;;;;7.20;4.23;;;;;;;;;;5062559;28;20470;-79
2023/08/28 00:08:40;;;;;;;7.23;4.30;;;;;;;;;;5045428;28;20686;-79
2023/08/28 00:11:07;;;;;;;11.80;4.30;;;;;;;;;;5046817;28;20458;-79
2023/08/28 00:13:33;;;;;;;10.23;4.57;;;;;;;;;;5047911;28;20449;-79
2023/08/28 00:15:59;;;;;;;5.60;4.27;;;;;;;;;;5030199;28;20961;-79
2023/08/28 00:18:27;;;;;;;8.20;4.30;;;;;;;;;;5046097;28;20998;-79
2023/08/28 00:20:55;;;;;;;11.67;4.93;;;;;;;;;;5054550;28;20444;-79
2023/08/28 00:23:22;;;;;;;8.40;4.03;;;;;;;;;;5049727;28;21395;-79
2023/08/28 00:25:49;;;;;;;10.90;4.90;;;;;;;;;;5025452;28;20480;-79
2023/08/28 00:28:15;;;;;;;6.17;4.27;;;;;;;;;;5044355;28;20440;-79
2023/08/28 00:30:41;;;;;;;4.60;3.63;;;;;;;;;;5056556;28;20439;-79
2023/08/28 00:33:08;;;;;;;8.33;3.83;;;;;;;;;;5045997;28;20475;-78
2023/08/28 00:35:36;;;;;;;4.33;3.93;;;;;;;;;;5046960;28;20464;-79
2023/08/28 00:38:02;;;;;;;4.40;4.00;;;;;;;;;;5053070;28;20463;-79
2023/08/28 00:40:28;;;;;;;7.70;3.90;;;;;;;;;;5039908;28;20491;-79
2023/08/28 00:42:56;;;;;;;3.37;3.17;;;;;;;;;;5044493;28;20457;-79
2023/08/28 00:45:22;;;;;;;7.53;4.10;;;;;;;;;;5051393;28;20478;-79
2023/08/28 00:47:49;;;;;;;7.87;4.00;;;;;;;;;;5041064;28;20464;-79
2023/08/28 00:50:16;;;;;;;5.80;3.67;;;;;;;;;;5037404;28;20454;-79
2023/08/28 00:52:44;;;;;;;4.77;3.47;;;;;;;;;;5040037;28;20460;-79
2023/08/28 00:55:10;;;;;;;9.17;3.93;;;;;;;;;;5040123;28;20485;-79
2023/08/28 00:57:36;;;;;;;5.40;4.37;;;;;;;;;;5046229;28;20466;-79
2023/08/28 01:00:05;;;;;;;4.40;3.70;;;;;;;;;;5034509;28;20492;-79
2023/08/28 01:02:31;;;;;;;5.03;3.87;;;;;;;;;;5047802;28;20489;-79
2023/08/28 01:04:59;;;;;;;5.03;4.50;;;;;;;;;;5053937;28;20460;-79
2023/08/28 01:07:27;;;;;;;5.13;3.97;;;;;;;;;;5060221;28;20502;-79
2023/08/28 01:10:00;;;;;;;5.13;4.47;;;;;;;;;;5041624;28;20486;-79
2023/08/28 01:12:31;;;;;;;7.10;4.13;;;;;;;;;;5032726;28;20480;-79
2023/08/28 01:14:59;;;;;;;6.30;4.77;;;;;;;;;;5031919;28;20476;-79
2023/08/28 01:17:26;;;;;;;7.80;4.40;;;;;;;;;;5047680;28;20545;-79
2023/08/28 01:19:53;;;;;;;4.63;3.90;;;;;;;;;;5040870;28;20458;-79
2023/08/28 01:22:23;;;;;;;6.90;4.70;;;;;;;;;;5019477;28;20537;-79
2023/08/28 01:24:50;;;;;;;8.90;4.07;;;;;;;;;;5063709;28;20474;-79
2023/08/28 01:27:18;;;;;;;5.70;4.50;;;;;;;;;;5048552;28;20460;-79
2023/08/28 01:29:44;;;;;;;8.03;4.83;;;;;;;;;;5039709;28;20444;-79
2023/08/28 01:32:11;;;;;;;4.43;3.80;;;;;;;;;;5035669;28;20572;-80
2023/08/28 01:34:39;;;;;;;5.73;5.17;;;;;;;;;;5041067;28;20467;-79
2023/08/28 01:37:09;;;;;;;7.03;4.03;;;;;;;;;;5057355;28;20492;-79
2023/08/28 01:39:39;;;;;;;5.50;4.50;;;;;;;;;;5030822;28;21023;-79
2023/08/28 01:42:07;;;;;;;6.70;3.87;;;;;;;;;;5039032;28;20458;-79
2023/08/28 01:44:35;;;;;;;7.33;4.20;;;;;;;;;;5019624;28;20451;-79
2023/08/28 01:47:02;;;;;;;5.07;4.67;;;;;;;;;;5049537;28;20479;-79
2023/08/28 01:49:29;;;;;;;4.57;4.17;;;;;;;;;;5041984;28;20495;-79
2023/08/28 01:51:55;;;;;;;4.93;4.43;;;;;;;;;;5035711;28;20481;-79
2023/08/28 01:54:22;;;;;;;7.70;5.17;;;;;;;;;;5040936;28;20468;-78
2023/08/28 01:56:49;;;;;;;8.43;5.00;;;;;;;;;;5045866;28;20478;-79
2023/08/28 01:59:15;;;;;;;12.33;5.63;;;;;;;;;;5042221;28;20441;-79
2023/08/28 02:01:43;;;;;;;30.93;5.90;;;;;;;;;;5052464;28;20479;-79
2023/08/28 02:04:09;;;;;;;8.20;4.83;;;;;;;;;;5046886;28;20844;-79
2023/08/28 02:06:36;;;;;;;6.00;5.10;;;;;;;;;;5031978;28;20484;-79
2023/08/28 02:09:02;;;;;;;5.77;4.80;;;;;;;;;;5037076;28;20487;-79
2023/08/28 02:11:29;;;;;;;7.37;5.00;;;;;;;;;;5044079;28;20459;-79
2023/08/28 02:13:55;;;;;;;5.90;5.40;;;;;;;;;;5048716;28;20447;-79
2023/08/28 02:16:22;;;;;;;8.10;4.87;;;;;;;;;;5038348;28;20488;-79
2023/08/28 02:18:50;;;;;;;6.97;4.90;;;;;;;;;;5033506;28;20439;-79
2023/08/28 02:21:16;;;;;;;5.53;5.03;;;;;;;;;;5038221;28;20482;-79
2023/08/28 02:23:42;;;;;;;11.77;5.07;;;;;;;;;;5030369;28;20445;-79
2023/08/28 02:26:09;;;;;;;6.10;5.60;;;;;;;;;;5046536;28;21116;-79
2023/08/28 02:28:37;;;;;;;7.00;6.30;;;;;;;;;;5045309;28;20454;-79
2023/08/28 02:31:04;;;;;;;5.97;4.83;;;;;;;;;;5053690;28;20495;-79
2023/08/28 02:33:32;;;;;;;8.13;5.60;;;;;;;;;;5034164;28;20481;-78
2023/08/28 02:36:02;;;;;;;7.13;6.43;;;;;;;;;;5045734;28;20461;-78
2023/08/28 02:38:29;;;;;;;7.43;5.97;;;;;;;;;;5039093;28;20928;-79
2023/08/28 02:41:02;;;;;;;6.73;5.30;;;;;;;;;;5036908;28;20461;-79
2023/08/28 02:43:28;;;;;;;8.60;6.60;;;;;;;;;;5051383;28;20443;-79
2023/08/28 02:45:55;;;;;;;8.53;6.73;;;;;;;;;;5041810;28;20854;-78
2023/08/28 02:48:22;;;;;;;9.33;7.47;;;;;;;;;;5030291;28;21002;-79
2023/08/28 02:50:51;;;;;;;12.73;7.03;;;;;;;;;;5043322;28;20455;-78
2023/08/28 02:53:19;;;;;;;9.47;7.77;;;;;;;;;;5040112;28;20468;-79
2023/08/28 02:56:05;;;;;;;7.60;6.90;;;;;;;;;;5033368;28;20449;-79
2023/08/28 02:58:31;;;;;;;8.10;6.70;;;;;;;;;;5049998;28;20482;-79
2023/08/28 03:00:58;;;;;;;7.60;6.83;;;;;;;;;;5044719;28;20463;-79
2023/08/28 03:03:24;;;;;;;9.13;7.23;;;;;;;;;;5041999;28;20443;-79
2023/08/28 03:05:50;;;;;;;9.33;6.73;;;;;;;;;;5044765;28;20985;-79
2023/08/28 03:08:17;;;;;;;10.67;7.03;;;;;;;;;;5040479;28;20447;-79
2023/08/28 03:10:45;;;;;;;7.50;6.80;;;;;;;;;;5029451;28;20974;-79
2023/08/28 03:13:11;;;;;;;9.37;7.57;;;;;;;;;;5039981;28;20517;-79
2023/08/28 03:15:37;;;;;;;7.60;6.83;;;;;;;;;;5037339;28;20452;-79
2023/08/28 03:18:04;;;;;;;12.37;7.90;;;;;;;;;;5026299;28;20860;-79
2023/08/28 03:20:34;;;;;;;14.73;8.20;;;;;;;;;;5047061;28;20466;-79
2023/08/28 03:23:02;;;;;;;14.30;9.27;;;;;;;;;;5034864;28;20440;-79
2023/08/28 03:25:29;;;;;;;15.00;8.40;;;;;;;;;;5051539;28;20491;-79
2023/08/28 03:27:56;;;;;;;11.50;8.50;;;;;;;;;;5025416;28;20583;-80
2023/08/28 03:30:23;;;;;;;18.97;8.03;;;;;;;;;;5045963;28;21002;-79
2023/08/28 03:32:49;;;;;;;13.80;7.23;;;;;;;;;;5043840;28;20467;-79
2023/08/28 03:35:16;;;;;;;11.40;8.90;;;;;;;;;;5054161;28;20463;-79
2023/08/28 03:37:43;;;;;;;11.23;8.17;;;;;;;;;;5040907;28;20823;-79
2023/08/28 03:40:10;;;;;;;8.47;7.10;;;;;;;;;;5050814;28;20978;-79
2023/08/28 03:42:37;;;;;;;14.17;8.17;;;;;;;;;;5041498;28;20441;-79
2023/08/28 03:45:06;;;;;;;10.70;8.07;;;;;;;;;;5040396;28;20857;-79
2023/08/28 03:47:32;;;;;;;9.47;7.90;;;;;;;;;;5047869;28;20557;-80
2023/08/28 03:49:58;;;;;;;16.83;9.87;;;;;;;;;;5031772;28;20474;-78
2023/08/28 03:52:24;;;;;;;11.50;8.50;;;;;;;;;;5039730;28;20869;-79
2023/08/28 03:54:51;;;;;;;15.30;9.20;;;;;;;;;;5051345;28;20493;-79
2023/08/28 03:57:17;;;;;;;15.20;8.93;;;;;;;;;;5041088;28;20448;-79
2023/08/28 03:59:44;;;;;;;15.60;8.70;;;;;;;;;;5047610;28;20437;-79
2023/08/28 04:02:12;;;;;;;11.77;8.83;;;;;;;;;;5053398;28;20947;-80
2023/08/28 04:04:38;;;;;;;9.47;7.60;;;;;;;;;;5045670;28;21062;-79
2023/08/28 04:07:04;;;;;;;9.23;7.70;;;;;;;;;;5037138;28;20997;-79
2023/08/28 04:09:31;;;;;;;11.67;8.13;;;;;;;;;;5031973;28;20510;-79
2023/08/28 04:11:57;;;;;;;8.67;7.77;;;;;;;;;;5046899;28;20463;-78
2023/08/28 04:14:24;;;;;;;8.50;6.93;;;;;;;;;;5043375;28;20469;-80
2023/08/28 04:16:50;;;;;;;8.80;7.30;;;;;;;;;;5046743;28;20471;-80
2023/08/28 04:19:18;;;;;;;15.80;8.03;;;;;;;;;;5042597;28;20457;-80
2023/08/28 04:21:45;;;;;;;9.10;8.10;;;;;;;;;;5046884;28;20487;-80
2023/08/28 04:24:11;;;;;;;9.67;8.40;;;;;;;;;;5038058;28;20908;-80
2023/08/28 04:26:37;;;;;;;12.33;8.87;;;;;;;;;;5039518;28;20440;-80
2023/08/28 04:29:04;;;;;;;9.00;7.83;;;;;;;;;;5045906;28;21005;-80
2023/08/28 04:31:30;;;;;;;11.47;8.13;;;;;;;;;;5049825;28;20475;-80
2023/08/28 04:33:57;;;;;;;10.60;8.13;;;;;;;;;;5045381;28;20447;-80
2023/08/28 04:36:24;;;;;;;12.53;9.10;;;;;;;;;;5027752;28;20468;-80
2023/08/28 04:38:51;;;;;;;11.80;8.90;;;;;;;;;;5041245;28;20484;-80
2023/08/28 04:41:17;;;;;;;12.40;7.87;;;;;;;;;;5047847;28;20550;-80
2023/08/28 04:43:44;;;;;;;11.90;8.87;;;;;;;;;;5052900;28;20442;-80
2023/08/28 04:46:10;;;;;;;9.10;7.60;;;;;;;;;;5049243;28;20479;-80
2023/08/28 04:48:36;;;;;;;12.50;8.60;;;;;;;;;;5033288;28;20435;-80
2023/08/28 04:51:04;;;;;;;11.53;8.13;;;;;;;;;;5022221;28;20472;-80
2023/08/28 04:53:32;;;;;;;10.00;8.47;;;;;;;;;;5046539;28;20472;-80
2023/08/28 04:55:58;;;;;;;12.83;9.27;;;;;;;;;;5046312;28;20454;-80
2023/08/28 04:58:25;;;;;;;18.40;9.50;;;;;;;;;;5038013;28;20471;-80
2023/08/28 05:00:51;;;;;;;9.90;7.43;;;;;;;;;;5036209;28;20533;-80
2023/08/28 05:03:18;;;;;;;10.53;9.43;;;;;;;;;;5057503;28;20482;-80
2023/08/28 05:05:44;;;;;;;9.47;8.47;;;;;;;;;;5034398;28;20457;-80
2023/08/28 05:08:11;;;;;;;11.40;9.07;;;;;;;;;;5034109;28;20443;-80
2023/08/28 05:10:38;;;;;;;12.73;8.97;;;;;;;;;;5043927;28;20482;-79
2023/08/28 05:13:05;;;;;;;9.27;8.27;;;;;;;;;;5042751;28;20459;-80
2023/08/28 05:15:31;;;;;;;9.50;8.33;;;;;;;;;;5041952;28;20462;-79
2023/08/28 05:18:01;;;;;;;10.93;9.40;;;;;;;;;;5046475;28;20441;-80
2023/08/28 05:20:28;;;;;;;11.07;9.43;;;;;;;;;;5036888;28;20482;-80
2023/08/28 05:22:54;;;;;;;14.73;9.30;;;;;;;;;;5044694;28;20530;-80
2023/08/28 05:25:21;;;;;;;11.43;9.60;;;;;;;;;;5030808;28;20486;-79
2023/08/28 05:27:49;;;;;;;12.47;8.23;;;;;;;;;;5034405;28;20459;-79
2023/08/28 05:30:15;;;;;;;10.50;9.40;;;;;;;;;;5034368;28;20466;-79
2023/08/28 05:32:42;;;;;;;13.67;10.00;;;;;;;;;;5047494;28;20476;-80
2023/08/28 05:35:09;;;;;;;10.43;9.40;;;;;;;;;;5039145;28;20483;-80
2023/08/28 05:37:35;;;;;;;10.37;8.70;;;;;;;;;;5039947;28;20576;-79
2023/08/28 05:40:04;;;;;;;11.20;9.40;;;;;;;;;;5048967;28;20491;-83
2023/08/28 05:42:31;;;;;;;11.30;10.00;;;;;;;;;;5012624;28;20481;-80
2023/08/28 05:44:58;;;;;;;12.40;10.70;;;;;;;;;;5037540;28;21064;-80
2023/08/28 05:47:25;;;;;;;13.83;10.07;;;;;;;;;;5035704;28;20883;-81
2023/08/28 05:49:51;;;;;;;13.17;8.90;;;;;;;;;;5040298;28;20449;-80
2023/08/28 05:52:17;;;;;;;10.47;8.57;;;;;;;;;;5050885;28;20479;-80
2023/08/28 05:54:44;;;;;;;12.93;10.00;;;;;;;;;;5053645;28;20477;-80
2023/08/28 05:57:10;;;;;;;9.50;8.50;;;;;;;;;;5036976;28;20443;-79
2023/08/28 05:59:37;;;;;;;12.83;10.03;;;;;;;;;;5038280;28;21022;-79
2023/08/28 06:02:05;;;;;;;11.60;10.10;;;;;;;;;;5049610;27;20472;-79
2023/08/28 06:04:32;;;;;;;11.37;9.17;;;;;;;;;;5041321;28;20476;-80
2023/08/28 06:07:01;;;;;;;11.60;10.50;;;;;;;;;;5054045;28;20467;-79
2023/08/28 06:09:28;;;;;;;13.53;10.63;;;;;;;;;;5036913;28;20838;-79
2023/08/28 06:11:54;;;;;;;10.37;9.07;;;;;;;;;;5045245;28;20451;-79
2023/08/28 06:14:21;;;;;;;13.53;10.03;;;;;;;;;;5036249;28;20559;-79
2023/08/28 06:16:47;;;;;;;16.47;11.20;;;;;;;;;;5051567;28;20462;-79
2023/08/28 06:19:15;;;;;;;16.10;11.70;;;;;;;;;;5037299;28;20452;-79
2023/08/28 06:21:44;;;;;;;18.33;11.77;;;;;;;;;;5060084;28;20480;-79
2023/08/28 06:24:11;;;;;;;18.53;13.17;;;;;;;;;;5040977;28;20459;-79
2023/08/28 06:26:37;;;;;;;17.33;11.30;;;;;;;;;;5064777;28;20820;-79
2023/08/28 06:29:04;;;;;;;13.00;10.90;;;;;;;;;;5041608;28;20487;-79
2023/08/28 06:31:30;;;;;;;14.80;12.50;;;;;;;;;;5046240;28;20934;-79
2023/08/28 06:33:56;;;;;;;19.33;11.90;;;;;;;;;;5029056;28;20488;-80
2023/08/28 06:36:24;;;;;;;15.40;11.30;;;;;;;;;;5053066;28;20459;-80
2023/08/28 06:38:52;;;;;;;21.40;12.77;;;;;;;;;;5049040;28;20453;-79
2023/08/28 06:41:18;;;;;;;16.83;11.97;;;;;;;;;;5056115;28;20472;-79
2023/08/28 06:43:44;;;;;;;16.33;12.13;;;;;;;;;;5046575;28;20447;-79
2023/08/28 06:46:11;;;;;;;13.77;11.50;;;;;;;;;;5056740;28;20464;-79
2023/08/28 06:48:37;;;;;;;18.40;14.60;;;;;;;;;;5047778;28;20445;-79
2023/08/28 06:51:04;;;;;;;16.70;13.23;;;;;;;;;;5055678;28;20441;-79
2023/08/28 06:53:31;;;;;;;18.13;13.73;;;;;;;;;;5051795;28;20840;-79
2023/08/28 06:55:58;;;;;;;16.77;12.97;;;;;;;;;;5030961;28;21115;-79
2023/08/28 06:58:26;;;;;;;13.60;11.50;;;;;;;;;;5036683;28;20605;-79
2023/08/28 07:00:52;;;;;;;11.87;10.33;;;;;;;;;;5029731;28;20451;-79
2023/08/28 07:03:19;;;;;;;13.50;10.37;;;;;;;;;;5034906;28;20461;-79
2023/08/28 07:05:45;;;;;;;15.80;10.87;;;;;;;;;;5028729;28;21058;-79
2023/08/28 07:08:12;;;;;;;14.90;12.07;;;;;;;;;;5029479;28;20442;-79
2023/08/28 07:10:39;;;;;;;9.90;8.30;;;;;;;;;;5029504;28;20481;-79
2023/08/28 07:13:06;;;;;;;10.10;8.73;;;;;;;;;;5041944;28;20456;-79
2023/08/28 07:15:48;;;;;;;9.10;7.90;;;;;;;;;;5047708;28;20457;-79
2023/08/28 07:18:16;;;;;;;10.53;8.40;;;;;;;;;;5041733;28;20988;-79
2023/08/28 07:20:42;;;;;;;11.00;9.03;;;;;;;;;;5044991;28;20491;-79
2023/08/28 07:23:09;;;;;;;10.53;8.47;;;;;;;;;;5042082;28;21002;-79
2023/08/28 07:25:35;;;;;;;10.03;8.20;;;;;;;;;;5046281;28;20484;-79
2023/08/28 07:28:04;;;;;;;9.17;8.17;;;;;;;;;;5043659;28;20475;-79
2023/08/28 07:30:31;;;;;;;9.23;7.40;;;;;;;;;;5046766;28;20473;-79
2023/08/28 07:32:57;;;;;;;10.90;7.73;;;;;;;;;;5040933;28;20468;-79
2023/08/28 07:35:29;;;;;;;10.40;7.53;;;;;;;;;;5030446;28;20570;-79
2023/08/28 07:37:55;;;;;;;8.30;7.47;;;;;;;;;;5045607;28;20521;-79
2023/08/28 07:40:21;;;;;;;7.83;7.03;;;;;;;;;;5042091;28;20498;-79
2023/08/28 07:42:48;;;;;;;8.70;6.60;;;;;;;;;;5031984;28;20466;-80
2023/08/28 07:45:15;;;;;;;12.83;7.40;;;;;;;;;;5050374;28;20974;-79
2023/08/28 07:47:42;;;;;;;8.60;7.43;;;;;;;;;;5036956;28;20481;-79
2023/08/28 07:50:09;;;;;;;11.03;7.50;;;;;;;;;;5048288;28;21045;-80
2023/08/28 07:52:36;;;;;;;11.07;8.63;;;;;;;;;;5022152;28;20480;-82
2023/08/28 07:55:02;;;;;;;9.13;8.27;;;;;;;;;;5044190;28;20486;-79
2023/08/28 07:57:29;;;;;;;11.90;6.50;;;;;;;;;;5046128;28;20479;-80
2023/08/28 07:59:55;;;;;;;8.07;7.13;;;;;;;;;;5017579;28;20556;-80
2023/08/28 08:02:23;;;;;;;10.07;7.00;;;;;;;;;;5040538;28;20471;-80
2023/08/28 08:04:50;;;;;;;9.13;6.70;;;;;;;;;;5032650;28;20861;-80
2023/08/28 08:07:16;;;;;;;7.43;6.33;;;;;;;;;;5036004;28;20491;-79
2023/08/28 08:09:43;;;;;;;9.40;6.50;;;;;;;;;;5039071;28;20859;-79
2023/08/28 08:12:09;;;;;;;9.30;5.97;;;;;;;;;;5036077;28;20475;-80
2023/08/28 08:14:36;;;;;;;7.80;5.20;;;;;;;;;;5043453;28;20459;-79
2023/08/28 08:17:03;;;;;;;8.87;6.50;;;;;;;;;;5047141;28;20470;-79
2023/08/28 08:19:31;;;;;;;8.90;7.27;;;;;;;;;;5043322;28;20472;-80
2023/08/28 08:21:58;;;;;;;7.63;6.10;;;;;;;;;;5034995;28;20543;-80
2023/08/28 08:24:25;;;;;;;7.60;6.37;;;;;;;;;;5029829;28;20469;-79
2023/08/28 08:26:51;;;;;;;6.07;5.00;;;;;;;;;;5044101;28;20484;-79
2023/08/28 08:29:17;;;;;;;6.50;4.70;;;;;;;;;;5053373;28;21041;-79
2023/08/28 08:31:44;;;;;;;8.57;5.03;;;;;;;;;;5039875;28;21009;-79
2023/08/28 08:34:10;;;;;;;5.60;5.10;;;;;;;;;;5046646;28;20467;-80
2023/08/28 08:36:39;;;;;;;6.33;5.50;;;;;;;;;;5031477;28;20477;-80
2023/08/28 08:39:06;;;;;;;6.77;5.73;;;;;;;;;;5042807;28;20488;-80
2023/08/28 08:41:34;;;;;;;6.00;5.27;;;;;;;;;;5033784;28;20476;-80
2023/08/28 08:44:00;;;;;;;9.47;5.97;;;;;;;;;;5044718;28;20484;-79
2023/08/28 08:46:27;;;;;;;5.30;4.80;;;;;;;;;;5038593;28;20989;-80
2023/08/28 08:48:55;;;;;;;4.60;3.93;;;;;;;;;;5050677;28;20471;-79
2023/08/28 08:51:23;;;;;;;8.63;4.40;;;;;;;;;;5035018;28;20467;-79
2023/08/28 08:53:55;;;;;;;4.17;3.60;;;;;;;;;;5033014;28;20497;-80
2023/08/28 08:56:24;;;;;;;3.50;2.80;;;;;;;;;;5047073;28;20957;-79
2023/08/28 08:58:50;;;;;;;3.70;3.30;;;;;;;;;;5036173;28;20457;-80
2023/08/28 09:01:17;;;;;;;4.23;3.07;;;;;;;;;;5054313;28;20491;-80
2023/08/28 09:03:44;;;;;;;3.33;2.80;;;;;;;;;;5038393;28;20462;-80
2023/08/28 09:06:11;;;;;;;5.13;3.63;;;;;;;;;;5048757;28;20481;-79
2023/08/28 09:08:37;;;;;;;3.20;2.83;;;;;;;;;;5043379;28;20485;-79
2023/08/28 09:11:06;;;;;;;4.83;3.10;;;;;;;;;;5040901;28;20480;-79
2023/08/28 09:13:33;;;;;;;5.60;3.30;;;;;;;;;;5038379;28;20465;-80
2023/08/28 09:15:59;;;;;;;4.60;2.50;;;;;;;;;;5040082;28;20475;-80
2023/08/28 09:18:26;;;;;;;4.93;2.47;;;;;;;;;;5028558;28;20492;-80
2023/08/28 09:21:05;;;;;;;9.60;3.10;;;;;;;;;;5051043;28;20547;-80
2023/08/28 09:23:32;;;;;;;3.70;2.43;;;;;;;;;;5041035;28;20474;-80
2023/08/28 09:25:58;;;;;;;3.40;2.53;;;;;;;;;;5038599;28;20485;-80
2023/08/28 09:28:27;;;;;;;2.97;2.00;;;;;;;;;;5037058;28;20466;-80
2023/08/28 09:30:53;;;;;;;4.70;3.10;;;;;;;;;;5052359;28;20490;-80
2023/08/28 09:33:20;;;;;;;2.40;2.20;;;;;;;;;;5038065;28;20491;-80
2023/08/28 09:35:46;;;;;;;2.63;2.20;;;;;;;;;;5054557;28;20482;-79
2023/08/28 09:38:13;;;;;;;4.13;2.70;;;;;;;;;;5035390;28;20468;-80
2023/08/28 09:40:40;;;;;;;6.70;2.80;;;;;;;;;;5057643;28;20487;-80
2023/08/28 09:43:11;;;;;;;3.73;2.13;;;;;;;;;;5043838;28;21051;-80
2023/08/28 09:45:39;;;;;;;4.37;1.93;;;;;;;;;;5040190;28;20484;-80
2023/08/28 09:48:06;;;;;;;1.90;1.73;;;;;;;;;;5041387;28;21006;-80
2023/08/28 09:50:33;;;;;;;2.50;2.07;;;;;;;;;;5043780;28;20863;-80
2023/08/28 09:53:09;;;;;;;2.73;1.90;;;;;;;;;;5021240;28;20469;-80
2023/08/28 09:55:39;;;;;;;3.40;2.80;;;;;;;;;;5042878;28;20488;-79
2023/08/28 09:58:09;;;;;;;3.03;1.50;;;;;;;;;;5035837;28;20488;-80
2023/08/28 10:00:37;;;;;;;2.93;1.53;;;;;;;;;;5036277;28;20485;-80
2023/08/28 10:03:06;;;;;;;3.67;1.53;;;;;;;;;;5042897;28;21057;-80
2023/08/28 10:05:33;;;;;;;2.07;1.90;;;;;;;;;;5053130;28;20491;-80
2023/08/28 10:08:03;;;;;;;2.10;1.53;;;;;;;;;;5050928;28;20465;-79
2023/08/28 10:10:30;;;;;;;4.13;1.50;;;;;;;;;;5058334;28;20482;-80
2023/08/28 10:12:57;;;;;;;2.47;2.27;;;;;;;;;;5050869;28;20482;-80
2023/08/28 10:15:23;;;;;;;5.40;1.67;;;;;;;;;;5053541;28;21011;-80
2023/08/28 10:17:51;;;;;;;3.80;1.43;;;;;;;;;;5045314;28;21017;-80
2023/08/28 10:20:20;;;;;;;3.43;1.40;;;;;;;;;;5048746;28;20493;-80
2023/08/28 10:22:47;;;;;;;2.97;1.67;;;;;;;;;;5044914;28;20466;-80
2023/08/28 10:25:14;;;;;;;7.00;1.83;;;;;;;;;;5043960;28;21032;-79
2023/08/28 10:27:41;;;;;;;2.70;1.13;;;;;;;;;;5036556;28;20560;-79
2023/08/28 10:30:08;;;;;;;1.37;1.00;;;;;;;;;;5035113;28;21026;-79
2023/08/28 10:32:37;;;;;;;1.90;1.33;;;;;;;;;;5031321;28;20604;-80
2023/08/28 10:35:03;;;;;;;1.60;1.33;;;;;;;;;;5035133;28;20996;-80
2023/08/28 10:37:32;;;;;;;2.90;1.43;;;;;;;;;;5048396;28;20470;-79
2023/08/28 10:40:01;;;;;;;1.67;1.50;;;;;;;;;;5039085;28;20491;-80
2023/08/28 10:42:28;;;;;;;2.10;1.20;;;;;;;;;;5035541;28;20540;-81
2023/08/28 10:44:55;;;;;;;2.03;1.80;;;;;;;;;;5056709;28;20491;-80
2023/08/28 10:47:21;;;;;;;2.90;2.70;;;;;;;;;;5035972;28;20555;-79
2023/08/28 10:49:48;;;;;;;2.63;2.43;;;;;;;;;;5029357;28;20631;-80
2023/08/28 10:52:14;;;;;;;2.20;1.30;;;;;;;;;;5031423;28;21010;-80
2023/08/28 10:54:43;;;;;;;4.57;1.50;;;;;;;;;;5044818;28;20474;-80
2023/08/28 10:57:21;;;;;;;1.27;1.00;;;;;;;;;;5044303;28;21002;-80
2023/08/28 10:59:49;;;;;;;1.17;1.03;;;;;;;;;;5023966;28;20900;-80
2023/08/28 11:02:15;;;;;;;2.40;1.00;;;;;;;;;;5038833;28;20486;-80
2023/08/28 11:04:42;;;;;;;2.77;1.17;;;;;;;;;;5050795;28;20850;-80
2023/08/28 11:07:24;;;;;;;1.20;1.10;;;;;;;;;;5034211;28;20472;-80
2023/08/28 11:10:13;;;;;;;1.60;1.23;;;;;;;;;;5031203;28;20472;-79
2023/08/28 11:12:50;;;;;;;1.00;0.80;;;;;;;;;;5036163;28;20475;-80
2023/08/28 11:15:24;;;;;;;3.50;1.50;;;;;;;;;;5041787;28;20490;-80
2023/08/28 11:18:13;;;;;;;3.20;1.43;;;;;;;;;;5039875;28;20465;-79
2023/08/28 11:20:39;;;;;;;4.93;1.57;;;;;;;;;;5037828;28;20488;-79
2023/08/28 11:23:06;;;;;;;4.00;1.30;;;;;;;;;;5035242;28;20478;-79
2023/08/28 11:25:37;;;;;;;1.00;0.90;;;;;;;;;;5049100;28;20501;-79
2023/08/28 11:28:05;;;;;;;3.70;1.20;;;;;;;;;;5041067;28;20477;-80
2023/08/28 11:30:31;;;;;;;1.53;0.73;;;;;;;;;;5044012;28;20481;-80
2023/08/28 11:32:58;;;;;;;1.47;0.87;;;;;;;;;;5039175;28;20477;-79
2023/08/28 11:35:24;;;;;;;3.50;1.30;;;;;;;;;;5021423;28;20484;-79
2023/08/28 11:37:51;;;;;;;1.80;1.07;;;;;;;;;;5017370;28;20525;-79
2023/08/28 11:40:18;;;;;;;1.50;1.20;;;;;;;;;;5047986;28;20492;-79
2023/08/28 11:42:46;;;;;;;1.23;0.90;;;;;;;;;;5040896;28;20459;-80
2023/08/28 11:45:18;;;;;;;2.33;0.90;;;;;;;;;;5025807;28;20496;-80
2023/08/28 11:47:45;;;;;;;2.70;1.30;;;;;;;;;;5025785;28;20463;-80
2023/08/28 11:50:11;;;;;;;1.83;1.50;;;;;;;;;;5022720;28;20980;-80
2023/08/28 11:52:37;;;;;;;3.13;0.80;;;;;;;;;;5028882;28;20486;-80
2023/08/28 11:55:04;;;;;;;2.20;0.93;;;;;;;;;;5031750;28;20468;-79
2023/08/28 11:57:32;;;;;;;0.93;0.70;;;;;;;;;;5026659;28;20470;-80
2023/08/28 11:59:59;;;;;;;2.70;0.90;;;;;;;;;;5025923;28;20469;-79
2023/08/28 12:02:30;;;;;;;1.50;0.80;;;;;;;;;;5030292;28;20480;-80
2023/08/28 12:04:56;;;;;;;0.50;0.50;;;;;;;;;;5022267;28;20483;-79
2023/08/28 12:07:23;;;;;;;0.87;0.80;;;;;;;;;;5012544;28;20500;-81
2023/08/28 12:09:51;;;;;;;1.27;0.90;;;;;;;;;;5023433;28;20559;-80
2023/08/28 12:12:17;;;;;;;2.87;0.90;;;;;;;;;;5016613;28;20490;-80
2023/08/28 12:14:44;;;;;;;0.67;0.60;;;;;;;;;;5057180;28;20482;-80
2023/08/28 12:17:14;;;;;;;2.03;0.73;;;;;;;;;;5060923;28;20646;-80
2023/08/28 12:19:42;;;;;;;1.27;0.73;;;;;;;;;;5042942;28;20502;-80
2023/08/28 12:22:10;;;;;;;1.20;0.77;;;;;;;;;;5055037;28;20539;-79
2023/08/28 12:24:39;;;;;;;1.70;0.70;;;;;;;;;;5046417;28;20986;-80
2023/08/28 12:27:06;;;;;;;1.30;0.80;;;;;;;;;;5054351;28;20876;-80
2023/08/28 12:29:33;;;;;;;1.33;0.77;;;;;;;;;;5056533;28;20483;-80
2023/08/28 12:32:05;;;;;;;1.13;0.50;;;;;;;;;;5054925;28;20840;-79
2023/08/28 12:34:32;;;;;;;2.20;0.70;;;;;;;;;;5055019;28;20465;-80
2023/08/28 12:37:05;;;;;;;1.70;0.90;;;;;;;;;;5050642;28;20493;-80
2023/08/28 12:39:31;;;;;;;1.07;0.60;;;;;;;;;;5047111;28;20558;-80
2023/08/28 12:41:58;;;;;;;0.77;0.70;;;;;;;;;;5065386;28;20488;-80
2023/08/28 12:44:24;;;;;;;1.60;0.90;;;;;;;;;;5054920;28;20467;-80
2023/08/28 12:46:51;;;;;;;1.90;0.90;;;;;;;;;;5047545;28;20504;-80
2023/08/28 12:49:17;;;;;;;1.60;0.87;;;;;;;;;;5053983;28;20481;-79
2023/08/28 12:51:44;;;;;;;1.83;1.30;;;;;;;;;;5044142;28;20480;-79
2023/08/28 12:54:13;;;;;;;1.73;0.77;;;;;;;;;;5060234;28;20473;-79
2023/08/28 12:56:39;;;;;;;1.40;0.80;;;;;;;;;;5052707;28;20483;-79
2023/08/28 12:59:06;;;;;;;2.80;1.10;;;;;;;;;;5056815;28;20463;-79
2023/08/28 13:01:32;;;;;;;1.20;0.77;;;;;;;;;;5062308;28;20485;-79
2023/08/28 13:03:59;;;;;;;2.80;0.90;;;;;;;;;;5048623;28;20853;-79
2023/08/28 13:06:26;;;;;;;2.40;0.70;;;;;;;;;;5059168;28;20482;-79
2023/08/28 13:08:52;;;;;;;2.50;1.20;;;;;;;;;;5058919;28;20551;-79
2023/08/28 13:11:20;;;;;;;4.20;1.07;;;;;;;;;;5041495;28;20470;-79
2023/08/28 13:13:46;;;;;;;1.10;0.70;;;;;;;;;;5040968;28;20486;-79
2023/08/28 13:16:13;;;;;;;1.60;0.97;;;;;;;;;;5047133;28;20477;-79
2023/08/28 13:18:39;;;;;;;1.10;0.90;;;;;;;;;;5058839;28;20479;-79
2023/08/28 13:21:07;;;;;;;1.90;0.90;;;;;;;;;;5053293;28;20494;-79
2023/08/28 13:23:34;;;;;;;2.57;1.30;;;;;;;;;;5040755;28;20475;-79
2023/08/28 13:26:00;;;;;;;3.80;0.80;;;;;;;;;;5047503;28;20578;-79
2023/08/28 13:28:28;;;;;;;1.90;1.03;;;;;;;;;;5047371;28;20482;-79
2023/08/28 13:30:55;;;;;;;1.00;0.80;;;;;;;;;;5046714;28;20485;-79
2023/08/28 13:33:21;;;;;;;2.17;0.83;;;;;;;;;;5029006;28;20480;-79
2023/08/28 13:35:49;;;;;;;2.50;0.80;;;;;;;;;;5056965;28;20532;-79
2023/08/28 13:38:16;;;;;;;1.70;0.70;;;;;;;;;;5044787;28;20472;-79
2023/08/28 13:40:42;;;;;;;1.57;0.87;;;;;;;;;;5051397;28;20482;-79
2023/08/28 13:43:09;;;;;;;1.10;0.87;;;;;;;;;;5044881;28;20471;-79
2023/08/28 13:45:36;;;;;;;1.70;0.90;;;;;;;;;;5044660;28;20503;-79
2023/08/28 13:48:05;;;;;;;3.67;0.87;;;;;;;;;;5049093;28;20470;-79
2023/08/28 13:50:31;;;;;;;0.97;0.80;;;;;;;;;;5057889;28;20869;-79
2023/08/28 13:52:58;;;;;;;0.80;0.80;;;;;;;;;;5059934;28;20464;-79
2023/08/28 13:55:24;;;;;;;1.20;1.07;;;;;;;;;;5056806;28;20489;-79
2023/08/28 13:57:52;;;;;;;1.10;1.00;;;;;;;;;;5058133;28;20459;-79
2023/08/28 14:00:20;;;;;;;0.90;0.90;;;;;;;;;;5056406;28;20496;-79
2023/08/28 14:02:48;;;;;;;1.27;1.10;;;;;;;;;;5044264;28;20467;-79
2023/08/28 14:05:16;;;;;;;2.40;1.40;;;;;;;;;;5048242;28;20496;-79
2023/08/28 14:07:43;;;;;;;2.40;0.97;;;;;;;;;;5054643;28;20467;-79
2023/08/28 14:10:10;;;;;;;1.07;0.90;;;;;;;;;;5045344;28;20463;-79
2023/08/28 14:12:36;;;;;;;1.70;1.10;;;;;;;;;;5051200;28;20479;-79
2023/08/28 14:15:04;;;;;;;3.63;0.80;;;;;;;;;;5061623;28;20478;-79
2023/08/28 14:17:30;;;;;;;1.80;0.93;;;;;;;;;;5059065;28;20483;-80
2023/08/28 14:19:58;;;;;;;2.10;0.87;;;;;;;;;;5052916;28;20471;-79
2023/08/28 14:22:25;;;;;;;3.27;1.03;;;;;;;;;;5031826;28;20495;-80
2023/08/28 14:24:53;;;;;;;1.33;1.23;;;;;;;;;;5046152;28;20478;-79
2023/08/28 14:27:19;;;;;;;1.73;0.93;;;;;;;;;;5052397;28;20495;-79
2023/08/28 14:29:46;;;;;;;1.50;0.90;;;;;;;;;;5046894;28;20835;-79
2023/08/28 14:32:13;;;;;;;6.90;1.30;;;;;;;;;;5046724;28;20506;-79
2023/08/28 14:34:40;;;;;;;3.20;0.90;;;;;;;;;;5032855;28;20480;-79
2023/08/28 14:37:08;;;;;;;2.93;0.97;;;;;;;;;;5044715;28;20503;-79
2023/08/28 14:39:34;;;;;;;1.87;1.00;;;;;;;;;;5046813;28;20559;-79